createdAt,value
2023-06-07T00:00:04.026Z,174.06
2023-06-07T00:01:03.728Z,173.78
2023-06-07T00:02:03.900Z,174.36
2023-06-07T00:03:03.983Z,175.09
2023-06-07T00:04:04.129Z,174.57
2023-06-07T00:05:04.096Z,174.57
2023-06-07T00:06:04.084Z,174.04
2023-06-07T00:07:04.155Z,175.11
2023-06-07T00:08:04.216Z,174.66
2023-06-07T00:09:04.290Z,173.17
2023-06-07T00:10:04.787Z,173.12
2023-06-07T00:11:06.717Z,173.12
2023-06-07T00:12:04.478Z,174.06
2023-06-07T00:13:04.500Z,174.13
2023-06-07T00:14:04.580Z,174.44
2023-06-07T00:15:04.585Z,172.44
2023-06-07T00:16:04.591Z,173.38
2023-06-07T00:17:04.683Z,174.86
2023-06-07T00:18:04.728Z,173.65
2023-06-07T00:19:04.921Z,172.89
2023-06-07T00:20:04.970Z,171.65
2023-06-07T00:21:04.722Z,172.03
2023-06-07T00:22:04.826Z,172.28
2023-06-07T00:23:04.796Z,172.59
2023-06-07T00:24:04.861Z,173.54
2023-06-07T00:25:04.895Z,172.54
2023-06-07T00:26:04.881Z,171.66
2023-06-07T00:27:04.935Z,172.05
2023-06-07T00:28:04.977Z,171.40
2023-06-07T00:29:04.998Z,171.93
2023-06-07T00:30:05.345Z,172.22
2023-06-07T00:31:05.154Z,172.52
2023-06-07T00:32:05.073Z,172.55
2023-06-07T00:33:05.131Z,170.97
2023-06-07T00:34:05.197Z,171.53
2023-06-07T00:35:05.197Z,171.93
2023-06-07T00:36:05.233Z,172.22
2023-06-07T00:37:05.265Z,171.85
2023-06-07T00:38:05.299Z,171.20
2023-06-07T00:39:05.330Z,171.44
2023-06-07T00:40:05.625Z,170.63
2023-06-07T00:41:05.367Z,170.14
2023-06-07T00:42:05.399Z,169.76
2023-06-07T00:43:05.460Z,170.60
2023-06-07T00:44:05.478Z,170.27
2023-06-07T00:45:05.511Z,170.20
2023-06-07T00:46:05.545Z,169.88
2023-06-07T00:47:05.573Z,170.53
2023-06-07T00:48:05.744Z,169.54
2023-06-07T00:49:05.698Z,169.88
2023-06-07T00:50:05.966Z,168.33
2023-06-07T00:51:05.824Z,167.58
2023-06-07T00:52:05.909Z,169.25
2023-06-07T00:53:06.000Z,168.70
2023-06-07T00:54:06.056Z,167.89
2023-06-07T00:55:06.094Z,167.18
2023-06-07T00:56:06.203Z,168.35
2023-06-07T00:57:06.229Z,169.63
2023-06-07T00:58:06.330Z,169.48
2023-06-07T00:59:06.424Z,168.36
2023-06-07T01:00:06.807Z,169.82
2023-06-07T01:01:06.542Z,170.08
2023-06-07T01:02:06.665Z,169.56
2023-06-07T01:03:06.763Z,169.53
2023-06-07T01:04:06.781Z,170.02
2023-06-07T01:05:06.890Z,170.74
2023-06-07T01:06:06.932Z,170.95
2023-06-07T01:07:06.996Z,171.33
2023-06-07T01:08:07.061Z,172.23
2023-06-07T01:09:07.158Z,171.87
2023-06-07T01:10:07.350Z,171.53
2023-06-07T01:11:07.294Z,171.79
2023-06-07T01:12:07.406Z,172.10
2023-06-07T01:13:07.464Z,171.02
2023-06-07T01:14:07.570Z,172.13
2023-06-07T01:15:07.644Z,171.60
2023-06-07T01:16:07.757Z,172.20
2023-06-07T01:17:07.781Z,172.34
2023-06-07T01:18:07.945Z,172.14
2023-06-07T01:19:07.927Z,170.46
2023-06-07T01:20:08.021Z,170.47
2023-06-07T01:21:08.105Z,171.51
2023-06-07T01:22:08.144Z,170.77
2023-06-07T01:23:08.232Z,170.56
2023-06-07T01:24:08.455Z,170.79
2023-06-07T01:25:08.392Z,170.82
2023-06-07T01:26:08.454Z,170.48
2023-06-07T01:27:08.551Z,171.76
2023-06-07T01:28:08.600Z,170.60
2023-06-07T01:29:08.643Z,170.33
2023-06-07T01:30:08.692Z,170.76
2023-06-07T01:31:08.754Z,171.14
2023-06-07T01:32:08.949Z,171.26
2023-06-07T01:33:08.962Z,170.62
2023-06-07T01:34:08.994Z,170.64
2023-06-07T01:35:09.081Z,171.26
2023-06-07T01:36:09.132Z,171.49
2023-06-07T01:37:09.198Z,170.71
2023-06-07T01:38:09.271Z,171.00
2023-06-07T01:39:09.351Z,171.24
2023-06-07T01:40:09.434Z,172.48
2023-06-07T01:41:09.479Z,172.37
2023-06-07T01:42:09.577Z,171.73
2023-06-07T01:43:09.617Z,172.59
2023-06-07T01:44:09.710Z,173.36
2023-06-07T01:45:09.802Z,171.90
2023-06-07T01:46:09.931Z,173.81
2023-06-07T01:47:09.937Z,174.60
2023-06-07T01:48:10.094Z,173.86
2023-06-07T01:49:10.104Z,173.92
2023-06-07T01:50:10.215Z,173.78
2023-06-07T01:51:10.286Z,173.58
2023-06-07T01:52:10.376Z,173.58
2023-06-07T01:53:10.442Z,172.92
2023-06-07T01:54:10.514Z,173.76
2023-06-07T01:55:10.565Z,173.22
2023-06-07T01:56:10.647Z,173.59
2023-06-07T01:57:10.822Z,172.71
2023-06-07T01:58:10.842Z,171.99
2023-06-07T01:59:10.889Z,170.71
2023-06-07T02:00:10.976Z,171.20
2023-06-07T02:01:11.101Z,170.78
2023-06-07T02:02:11.105Z,171.25
2023-06-07T02:03:11.231Z,172.19
2023-06-07T02:04:11.319Z,172.72
2023-06-07T02:05:11.420Z,173.04
2023-06-07T02:06:11.452Z,173.21
2023-06-07T02:07:11.522Z,171.86
2023-06-07T02:08:11.580Z,172.05
2023-06-07T02:09:11.687Z,172.35
2023-06-07T02:10:11.746Z,170.67
2023-06-07T02:11:11.854Z,171.12
2023-06-07T02:12:11.947Z,171.42
2023-06-07T02:13:11.994Z,171.56
2023-06-07T02:14:12.054Z,170.65
2023-06-07T02:15:12.145Z,171.36
2023-06-07T02:16:12.235Z,172.03
2023-06-07T02:17:12.384Z,171.56
2023-06-07T02:18:12.442Z,172.27
2023-06-07T02:19:12.497Z,171.95
2023-06-07T02:20:12.550Z,170.93
2023-06-07T02:21:12.645Z,171.18
2023-06-07T02:22:12.684Z,170.67
2023-06-07T02:23:12.794Z,171.06
2023-06-07T02:24:12.943Z,169.16
2023-06-07T02:25:13.038Z,170.18
2023-06-07T02:26:12.995Z,171.03
2023-06-07T02:27:13.094Z,171.06
2023-06-07T02:28:13.198Z,169.95
2023-06-07T02:29:13.277Z,169.62
2023-06-07T02:30:13.334Z,169.35
2023-06-07T02:31:13.480Z,170.61
2023-06-07T02:32:13.483Z,170.36
2023-06-07T02:33:13.684Z,170.07
2023-06-07T02:34:13.649Z,170.43
2023-06-07T02:35:13.746Z,169.91
2023-06-07T02:36:13.812Z,168.61
2023-06-07T02:37:13.907Z,168.84
2023-06-07T02:38:14.004Z,169.90
2023-06-07T02:39:14.068Z,169.25
2023-06-07T02:40:14.155Z,169.90
2023-06-07T02:41:14.257Z,169.24
2023-06-07T02:42:14.320Z,169.33
2023-06-07T02:43:14.421Z,169.27
2023-06-07T02:44:14.488Z,170.58
2023-06-07T02:45:14.558Z,169.78
2023-06-07T02:46:14.647Z,170.40
2023-06-07T02:47:14.755Z,170.12
2023-06-07T02:48:14.770Z,170.53
2023-06-07T02:49:14.857Z,170.53
2023-06-07T02:50:15.005Z,169.94
2023-06-07T02:51:15.031Z,169.61
2023-06-07T02:52:15.096Z,170.54
2023-06-07T02:53:15.204Z,171.37
2023-06-07T02:54:15.245Z,171.20
2023-06-07T02:55:15.343Z,171.10
2023-06-07T02:56:15.423Z,172.20
2023-06-07T02:57:15.475Z,171.12
2023-06-07T02:58:15.586Z,170.71
2023-06-07T02:59:15.640Z,171.20
2023-06-07T03:00:15.731Z,169.60
2023-06-07T03:01:15.822Z,171.47
2023-06-07T03:02:15.951Z,171.59
2023-06-07T03:03:16.047Z,170.85
2023-06-07T03:04:16.050Z,172.32
2023-06-07T03:05:16.147Z,171.56
2023-06-07T03:06:16.239Z,170.99
2023-06-07T03:07:16.333Z,171.29
2023-06-07T03:08:16.421Z,170.90
2023-06-07T03:09:16.451Z,170.49
2023-06-07T03:10:16.538Z,169.79
2023-06-07T03:11:16.597Z,170.23
2023-06-07T03:12:16.667Z,170.20
2023-06-07T03:13:16.813Z,170.53
2023-06-07T03:14:16.871Z,169.82
2023-06-07T03:15:16.940Z,170.50
2023-06-07T03:16:17.076Z,170.69
2023-06-07T03:17:17.087Z,172.49
2023-06-07T03:18:17.204Z,172.71
2023-06-07T03:19:17.258Z,172.07
2023-06-07T03:20:17.345Z,174.07
2023-06-07T03:21:17.420Z,172.61
2023-06-07T03:22:17.496Z,173.14
2023-06-07T03:23:17.580Z,172.64
2023-06-07T03:24:17.783Z,172.15
2023-06-07T03:25:17.811Z,173.91
2023-06-07T03:26:17.830Z,173.72
2023-06-07T03:27:17.941Z,172.94
2023-06-07T03:28:18.042Z,173.23
2023-06-07T03:29:18.081Z,173.73
2023-06-07T03:30:18.172Z,174.27
2023-06-07T03:31:18.345Z,174.30
2023-06-07T03:32:18.352Z,174.10
2023-06-07T03:33:18.488Z,174.77
2023-06-07T03:34:18.471Z,174.81
2023-06-07T03:35:18.559Z,174.63
2023-06-07T03:36:18.665Z,175.32
2023-06-07T03:37:18.737Z,175.87
2023-06-07T03:38:18.811Z,174.95
2023-06-07T03:39:18.878Z,176.71
2023-06-07T03:40:18.966Z,175.77
2023-06-07T03:41:19.033Z,176.54
2023-06-07T03:42:19.116Z,177.45
2023-06-07T03:43:19.193Z,177.51
2023-06-07T03:44:19.285Z,176.10
2023-06-07T03:45:19.379Z,177.68
2023-06-07T03:46:19.438Z,177.76
2023-06-07T03:47:19.505Z,177.16
2023-06-07T03:48:19.704Z,177.08
2023-06-07T03:49:19.746Z,177.84
2023-06-07T03:50:19.783Z,177.71
2023-06-07T03:51:19.795Z,177.48
2023-06-07T03:52:19.900Z,177.12
2023-06-07T03:53:19.965Z,177.92
2023-06-07T03:54:20.073Z,178.12
2023-06-07T03:55:20.135Z,177.88
2023-06-07T03:56:20.222Z,176.58
2023-06-07T03:57:20.354Z,177.68
2023-06-07T03:58:20.420Z,177.67
2023-06-07T03:59:20.546Z,178.63
2023-06-07T04:00:20.562Z,178.51
2023-06-07T04:01:20.639Z,178.49
2023-06-07T04:02:20.776Z,178.29
2023-06-07T04:03:20.881Z,177.35
2023-06-07T04:04:20.956Z,177.79
2023-06-07T04:05:20.977Z,178.80
2023-06-07T04:06:21.058Z,178.46
2023-06-07T04:07:21.155Z,178.84
2023-06-07T04:08:21.240Z,178.99
2023-06-07T04:09:21.310Z,179.34
2023-06-07T04:10:21.391Z,179.28
2023-06-07T04:11:21.481Z,179.24
2023-06-07T04:12:21.560Z,179.96
2023-06-07T04:13:21.646Z,180.26
2023-06-07T04:14:21.704Z,180.09
2023-06-07T04:15:21.828Z,179.56
2023-06-07T04:16:21.878Z,179.84
2023-06-07T04:17:21.898Z,179.68
2023-06-07T04:18:22.003Z,179.23
2023-06-07T04:19:22.079Z,179.72
2023-06-07T04:20:22.240Z,180.63
2023-06-07T04:21:22.276Z,180.71
2023-06-07T04:22:22.340Z,181.41
2023-06-07T04:23:22.450Z,180.63
2023-06-07T04:24:22.529Z,181.21
2023-06-07T04:25:22.596Z,180.90
2023-06-07T04:26:22.676Z,180.01
2023-06-07T04:27:22.774Z,180.69
2023-06-07T04:28:22.825Z,181.45
2023-06-07T04:29:22.940Z,181.42
2023-06-07T04:30:22.995Z,181.00
2023-06-07T04:31:23.166Z,181.30
2023-06-07T04:32:23.274Z,181.69
2023-06-07T04:33:23.255Z,180.50
2023-06-07T04:34:23.338Z,181.46
2023-06-07T04:35:23.387Z,181.65
2023-06-07T04:36:23.458Z,181.44
2023-06-07T04:37:23.554Z,181.96
2023-06-07T04:38:23.975Z,181.67
2023-06-07T04:39:23.700Z,181.44
2023-06-07T04:40:23.775Z,180.49
2023-06-07T04:41:23.855Z,181.03
2023-06-07T04:42:23.968Z,180.04
2023-06-07T04:43:24.043Z,180.99
2023-06-07T04:44:24.089Z,181.95
2023-06-07T04:45:24.210Z,181.77
2023-06-07T04:46:24.348Z,182.17
2023-06-07T04:47:24.386Z,181.30
2023-06-07T04:48:24.447Z,182.11
2023-06-07T04:49:24.552Z,181.47
2023-06-07T04:50:24.643Z,179.62
2023-06-07T04:51:24.726Z,180.19
2023-06-07T04:52:26.843Z,180.63
2023-06-07T04:53:24.822Z,181.02
2023-06-07T04:54:24.853Z,180.30
2023-06-07T04:55:24.865Z,180.16
2023-06-07T04:56:24.887Z,180.58
2023-06-07T04:57:24.939Z,180.99
2023-06-07T04:58:24.980Z,181.51
2023-06-07T04:59:24.977Z,181.88
2023-06-07T05:00:32.519Z,181.80
2023-06-07T05:01:25.069Z,181.95
2023-06-07T05:02:25.153Z,182.35
2023-06-07T05:03:25.174Z,182.55
2023-06-07T05:04:25.180Z,183.83
2023-06-07T05:05:25.185Z,184.61
2023-06-07T05:06:25.206Z,185.24
2023-06-07T05:07:25.240Z,185.80
2023-06-07T05:08:25.257Z,186.56
2023-06-07T05:09:26.704Z,186.66
2023-06-07T05:10:25.330Z,187.06
2023-06-07T05:11:25.381Z,186.36
2023-06-07T05:12:25.404Z,187.56
2023-06-07T05:13:25.436Z,187.30
2023-06-07T05:14:25.469Z,187.40
2023-06-07T05:15:25.500Z,187.26
2023-06-07T05:16:25.619Z,188.06
2023-06-07T05:17:25.617Z,188.29
2023-06-07T05:18:25.595Z,188.07
2023-06-07T05:19:25.616Z,187.70
2023-06-07T05:20:25.616Z,187.27
2023-06-07T05:21:25.647Z,187.88
2023-06-07T05:22:25.716Z,187.77
2023-06-07T05:23:25.754Z,188.04
2023-06-07T05:24:25.813Z,187.10
2023-06-07T05:25:25.878Z,187.20
2023-06-07T05:26:25.801Z,187.25
2023-06-07T05:27:25.867Z,185.86
2023-06-07T05:28:25.861Z,185.94
2023-06-07T05:29:25.906Z,185.12
2023-06-07T05:30:25.925Z,183.44
2023-06-07T05:31:25.999Z,183.97
2023-06-07T05:32:26.034Z,183.27
2023-06-07T05:33:26.019Z,181.17
2023-06-07T05:34:26.116Z,171.87
2023-06-07T05:35:26.056Z,165.35
2023-06-07T05:36:26.094Z,161.61
2023-06-07T05:37:26.132Z,161.66
2023-06-07T05:38:26.628Z,157.58
2023-06-07T05:39:26.180Z,154.62
2023-06-07T05:40:26.195Z,145.16
2023-06-07T05:41:26.234Z,144.05
2023-06-07T05:42:26.379Z,134.23
2023-06-07T05:43:26.357Z,135.46
2023-06-07T05:44:26.606Z,134.11
2023-06-07T05:45:33.418Z,137.16
2023-06-07T05:46:26.555Z,129.61
2023-06-07T05:47:26.557Z,113.60
2023-06-07T05:48:26.466Z,115.42
2023-06-07T05:49:26.625Z,114.73
2023-06-07T05:50:26.589Z,118.53
2023-06-07T05:51:26.626Z,123.84
2023-06-07T05:52:26.706Z,135.20
2023-06-07T05:53:26.705Z,142.13
2023-06-07T05:54:27.176Z,148.07
2023-06-07T05:55:26.845Z,151.37
2023-06-07T05:56:26.836Z,154.24
2023-06-07T05:57:26.873Z,160.64
2023-06-07T05:58:26.957Z,164.12
2023-06-07T05:59:26.950Z,168.85
2023-06-07T06:00:26.958Z,175.31
2023-06-07T06:01:27.007Z,176.02
2023-06-07T06:02:27.073Z,176.51
2023-06-07T06:03:27.176Z,177.59
2023-06-07T06:04:28.088Z,177.01
2023-06-07T06:05:27.210Z,177.31
2023-06-07T06:06:27.160Z,179.31
2023-06-07T06:07:27.190Z,175.93
2023-06-07T06:08:28.398Z,164.02
2023-06-07T06:09:27.892Z,160.23
2023-06-07T06:10:27.323Z,155.15
2023-06-07T06:11:27.302Z,153.81
2023-06-07T06:12:27.345Z,152.87
2023-06-07T06:13:27.400Z,157.50
2023-06-07T06:14:27.989Z,158.21
2023-06-07T06:15:28.527Z,160.79
2023-06-07T06:16:28.167Z,163.31
2023-06-07T06:17:27.520Z,168.86
2023-06-07T06:18:27.517Z,159.92
2023-06-07T06:19:28.631Z,154.66
2023-06-07T06:20:27.609Z,149.97
2023-06-07T06:21:27.642Z,146.07
2023-06-07T06:22:27.674Z,150.08
2023-06-07T06:23:28.118Z,157.49
2023-06-07T06:24:28.141Z,153.31
2023-06-07T06:25:27.910Z,156.73
2023-06-07T06:26:28.002Z,156.99
2023-06-07T06:27:28.158Z,160.56
2023-06-07T06:28:28.835Z,167.41
2023-06-07T06:29:28.371Z,170.64
2023-06-07T06:30:30.388Z,145.25
2023-06-07T06:31:28.594Z,128.38
2023-06-07T06:32:28.597Z,119.37
2023-06-07T06:33:28.757Z,108.20
2023-06-07T06:34:29.336Z,101.91
2023-06-07T06:35:28.841Z,95.55
2023-06-07T06:36:28.948Z,93.29
2023-06-07T06:37:29.005Z,94.72
2023-06-07T06:38:29.133Z,92.85
2023-06-07T06:39:29.192Z,93.45
2023-06-07T06:40:29.222Z,100.24
2023-06-07T06:41:29.352Z,101.85
2023-06-07T06:42:29.563Z,106.69
2023-06-07T06:43:29.468Z,115.71
2023-06-07T06:44:29.576Z,126.21
2023-06-07T06:45:29.768Z,136.00
2023-06-07T06:46:29.760Z,139.61
2023-06-07T06:47:29.976Z,144.97
2023-06-07T06:48:29.848Z,149.33
2023-06-07T06:49:30.246Z,148.01
2023-06-07T06:50:32.805Z,145.58
2023-06-07T06:51:30.011Z,150.20
2023-06-07T06:52:30.047Z,153.37
2023-06-07T06:53:30.059Z,156.41
2023-06-07T06:54:30.137Z,131.93
2023-06-07T06:55:30.228Z,117.47
2023-06-07T06:56:30.184Z,119.32
2023-06-07T06:57:30.196Z,125.51
2023-06-07T06:58:30.231Z,132.99
2023-06-07T06:59:30.263Z,140.97
2023-06-07T07:00:30.289Z,147.36
2023-06-07T07:01:30.341Z,154.51
2023-06-07T07:02:30.412Z,158.68
2023-06-07T07:03:30.409Z,163.04
2023-06-07T07:04:30.499Z,167.55
2023-06-07T07:05:30.889Z,163.06
2023-06-07T07:06:30.459Z,162.82
2023-06-07T07:07:30.501Z,162.53
2023-06-07T07:08:30.533Z,162.91
2023-06-07T07:09:30.542Z,161.18
2023-06-07T07:10:30.697Z,162.36
2023-06-07T07:11:32.040Z,163.70
2023-06-07T07:12:30.639Z,163.31
2023-06-07T07:13:30.694Z,165.53
2023-06-07T07:14:30.721Z,164.41
2023-06-07T07:15:30.737Z,165.09
2023-06-07T07:16:30.806Z,168.56
2023-06-07T07:17:30.785Z,168.31
2023-06-07T07:18:30.817Z,167.42
2023-06-07T07:19:30.833Z,169.69
2023-06-07T07:20:30.842Z,170.32
2023-06-07T07:21:30.887Z,173.54
2023-06-07T07:22:30.880Z,175.05
2023-06-07T07:23:31.000Z,176.52
2023-06-07T07:24:30.954Z,178.89
2023-06-07T07:25:31.187Z,181.78
2023-06-07T07:26:30.988Z,184.67
2023-06-07T07:27:31.004Z,183.53
2023-06-07T07:28:31.040Z,179.09
2023-06-07T07:29:31.064Z,175.16
2023-06-07T07:30:31.208Z,151.27
2023-06-07T07:31:31.147Z,125.48
2023-06-07T07:32:31.144Z,115.22
2023-06-07T07:33:31.165Z,100.18
2023-06-07T07:34:31.384Z,88.30
2023-06-07T07:35:31.281Z,73.07
2023-06-07T07:36:31.353Z,67.77
2023-06-07T07:37:31.435Z,69.31
2023-06-07T07:38:31.509Z,64.77
2023-06-07T07:39:31.762Z,59.72
2023-06-07T07:40:31.679Z,56.20
2023-06-07T07:41:31.783Z,57.31
2023-06-07T07:42:31.873Z,69.54
2023-06-07T07:43:35.339Z,86.48
2023-06-07T07:44:33.188Z,86.57
2023-06-07T07:45:31.996Z,87.77
2023-06-07T07:46:32.152Z,91.48
2023-06-07T07:47:32.087Z,103.16
2023-06-07T07:48:32.064Z,119.14
2023-06-07T07:49:33.709Z,134.62
2023-06-07T07:50:32.183Z,131.29
2023-06-07T07:51:32.243Z,100.73
2023-06-07T07:52:32.166Z,78.64
2023-06-07T07:53:32.149Z,51.09
2023-06-07T07:54:32.215Z,34.94
2023-06-07T07:55:32.706Z,23.12
2023-06-07T07:56:32.271Z,25.00
2023-06-07T07:57:32.277Z,22.83
2023-06-07T07:58:32.343Z,24.56
2023-06-07T07:59:32.343Z,23.00
2023-06-07T08:00:32.500Z,25.00
2023-06-07T08:01:33.224Z,28.12
2023-06-07T08:02:32.472Z,25.00
2023-06-07T08:03:32.681Z,25.27
2023-06-07T08:04:32.493Z,25.00
2023-06-07T08:05:32.685Z,27.82
2023-06-07T08:06:32.595Z,25.45
2023-06-07T08:07:32.587Z,24.90
2023-06-07T08:08:32.624Z,25.11
2023-06-07T08:09:32.616Z,25.00
2023-06-07T08:10:32.717Z,27.95
2023-06-07T08:11:32.662Z,25.59
2023-06-07T08:12:35.026Z,30.93
2023-06-07T08:13:32.705Z,40.35
2023-06-07T08:14:32.714Z,46.51
2023-06-07T08:15:32.738Z,44.92
2023-06-07T08:16:32.838Z,45.06
2023-06-07T08:17:32.837Z,42.84
2023-06-07T08:18:32.910Z,41.54
2023-06-07T08:19:32.831Z,41.86
2023-06-07T08:20:33.238Z,41.25
2023-06-07T08:21:32.941Z,40.09
2023-06-07T08:22:32.897Z,33.88
2023-06-07T08:23:33.295Z,29.53
2023-06-07T08:24:32.951Z,27.74
2023-06-07T08:25:33.247Z,23.99
2023-06-07T08:26:33.050Z,24.74
2023-06-07T08:27:33.041Z,27.62
2023-06-07T08:28:33.061Z,29.90
2023-06-07T08:29:33.072Z,32.14
2023-06-07T08:30:33.224Z,30.67
2023-06-07T08:31:33.265Z,34.62
2023-06-07T08:32:33.270Z,38.80
2023-06-07T08:33:33.214Z,44.58
2023-06-07T08:34:34.541Z,64.36
2023-06-07T08:35:33.730Z,79.84
2023-06-07T08:36:33.289Z,92.37
2023-06-07T08:37:33.320Z,91.53
2023-06-07T08:38:33.302Z,86.65
2023-06-07T08:39:33.325Z,83.60
2023-06-07T08:40:33.403Z,85.76
2023-06-07T08:41:33.373Z,85.67
2023-06-07T08:42:33.396Z,83.88
2023-06-07T08:43:33.473Z,78.84
2023-06-07T08:45:06.788Z,25.00
2023-06-07T08:46:06.766Z,25.00
2023-06-07T08:47:06.536Z,25.00
2023-06-07T08:48:06.677Z,25.00
2023-06-07T08:49:06.598Z,25.00
2023-06-07T08:50:06.881Z,50.54
2023-06-07T08:51:06.747Z,90.89
2023-06-07T08:52:15.625Z,128.60
2023-06-07T08:53:07.633Z,129.81
2023-06-07T08:54:06.665Z,138.23
2023-06-07T08:55:06.733Z,163.82
2023-06-07T08:56:06.683Z,214.16
2023-06-07T08:57:06.725Z,282.25
2023-06-07T08:58:06.681Z,248.71
2023-06-07T08:59:06.685Z,250.18
2023-06-07T09:00:06.987Z,243.77
2023-06-07T09:01:07.191Z,223.54
2023-06-07T09:02:06.714Z,220.87
2023-06-07T09:03:06.814Z,177.69
2023-06-07T09:04:06.736Z,179.05
2023-06-07T09:05:06.751Z,189.24
2023-06-07T09:06:07.229Z,204.93
2023-06-07T09:07:06.821Z,205.95
2023-06-07T09:08:06.908Z,179.15
2023-06-07T09:09:07.019Z,177.17
2023-06-07T09:10:07.304Z,186.28
2023-06-07T09:11:07.133Z,191.68
2023-06-07T09:12:07.127Z,97.90
2023-06-07T09:13:07.175Z,39.21
2023-06-07T09:14:07.240Z,37.51
2023-06-07T09:15:07.316Z,30.57
2023-06-07T09:16:07.734Z,10.02
2023-06-07T09:17:07.503Z,25.00
2023-06-07T09:18:07.638Z,83.12
2023-06-07T09:19:07.622Z,112.55
2023-06-07T09:20:07.830Z,126.98
2023-06-07T09:21:07.780Z,134.33
2023-06-07T09:22:07.802Z,142.44
2023-06-07T09:23:07.891Z,151.24
2023-06-07T09:24:08.042Z,147.57
2023-06-07T09:25:08.052Z,140.50
2023-06-07T09:26:08.108Z,130.46
2023-06-07T09:27:08.149Z,120.54
2023-06-07T09:28:08.228Z,114.94
2023-06-07T09:29:08.308Z,108.04
2023-06-07T09:30:08.606Z,101.94
2023-06-07T09:31:08.820Z,89.72
2023-06-07T09:32:08.509Z,65.33
2023-06-07T09:33:08.720Z,54.68
2023-06-07T09:34:08.711Z,61.00
2023-06-07T09:35:08.814Z,61.66
2023-06-07T09:36:08.816Z,58.02
2023-06-07T09:37:08.842Z,78.55
2023-06-07T09:38:09.375Z,67.05
2023-06-07T09:39:08.997Z,72.91
2023-06-07T09:40:09.032Z,80.33
2023-06-07T09:41:09.238Z,95.71
2023-06-07T09:42:09.123Z,150.54
2023-06-07T09:43:09.141Z,202.76
2023-06-07T09:44:09.188Z,238.24
2023-06-07T09:45:09.182Z,252.18
2023-06-07T09:46:09.193Z,253.09
2023-06-07T09:47:09.275Z,250.60
2023-06-07T09:48:09.348Z,250.00
2023-06-07T09:49:09.339Z,247.36
2023-06-07T09:50:09.351Z,185.33
2023-06-07T09:51:09.731Z,180.60
2023-06-07T09:52:09.409Z,207.51
2023-06-07T09:53:09.361Z,229.43
2023-06-07T09:54:09.389Z,246.57
2023-06-07T09:55:09.518Z,249.65
2023-06-07T09:56:09.748Z,250.00
2023-06-07T09:57:09.613Z,244.89
2023-06-07T09:58:09.500Z,242.81
2023-06-07T09:59:09.618Z,235.17
2023-06-07T10:00:09.832Z,241.37
2023-06-07T10:01:09.649Z,244.99
2023-06-07T10:02:09.609Z,226.14
2023-06-07T10:03:09.696Z,204.87
2023-06-07T10:04:09.685Z,201.83
2023-06-07T10:05:09.644Z,200.22
2023-06-07T10:06:09.774Z,200.69
2023-06-07T10:07:09.757Z,196.29
2023-06-07T10:08:09.740Z,195.52
2023-06-07T10:09:09.756Z,192.06
2023-06-07T10:10:11.179Z,187.60
2023-06-07T10:11:09.833Z,167.65
2023-06-07T10:12:10.346Z,146.42
2023-06-07T10:13:09.863Z,120.56
2023-06-07T10:14:09.986Z,107.98
2023-06-07T10:15:09.964Z,103.51
2023-06-07T10:16:10.338Z,80.23
2023-06-07T10:17:10.250Z,70.02
2023-06-07T10:18:10.216Z,61.37
2023-06-07T10:19:10.119Z,51.83
2023-06-07T10:20:10.161Z,41.13
2023-06-07T10:21:10.239Z,41.26
2023-06-07T10:22:10.251Z,44.24
2023-06-07T10:23:10.266Z,41.02
2023-06-07T10:24:10.403Z,41.69
2023-06-07T10:25:10.427Z,41.16
2023-06-07T10:26:10.402Z,45.39
2023-06-07T10:27:10.736Z,49.45
2023-06-07T10:28:10.492Z,58.22
2023-06-07T10:29:10.617Z,61.33
2023-06-07T10:30:10.605Z,60.68
2023-06-07T10:31:10.908Z,62.36
2023-06-07T10:32:10.829Z,59.68
2023-06-07T10:33:10.818Z,57.55
2023-06-07T10:34:10.821Z,48.08
2023-06-07T10:35:13.422Z,36.12
2023-06-07T10:36:10.935Z,33.94
2023-06-07T10:37:11.264Z,26.36
2023-06-07T10:38:10.888Z,23.46
2023-06-07T10:39:10.922Z,18.14
2023-06-07T10:40:10.950Z,24.66
2023-06-07T10:41:13.260Z,26.22
2023-06-07T10:42:11.296Z,26.26
2023-06-07T10:43:10.964Z,21.92
2023-06-07T10:44:10.988Z,21.38
2023-06-07T10:45:10.947Z,18.68
2023-06-07T10:46:11.125Z,18.47
2023-06-07T10:47:11.619Z,25.27
2023-06-07T10:48:11.022Z,27.16
2023-06-07T10:49:10.989Z,30.27
2023-06-07T10:50:11.195Z,31.83
2023-06-07T10:51:10.998Z,31.08
2023-06-07T10:52:11.280Z,33.08
2023-06-07T10:53:13.998Z,33.50
2023-06-07T10:54:11.028Z,32.40
2023-06-07T10:55:11.056Z,33.82
2023-06-07T10:56:12.051Z,33.69
2023-06-07T10:57:11.333Z,34.40
2023-06-07T10:58:11.067Z,37.12
2023-06-07T10:59:11.094Z,42.83
2023-06-07T11:00:11.080Z,62.76
2023-06-07T11:01:11.164Z,75.66
2023-06-07T11:02:11.332Z,69.87
2023-06-07T11:03:11.240Z,65.12
2023-06-07T11:04:11.290Z,49.57
2023-06-07T11:05:11.235Z,40.57
2023-06-07T11:06:11.159Z,40.54
2023-06-07T11:07:11.149Z,42.90
2023-06-07T11:08:11.251Z,22.24
2023-06-07T11:09:11.159Z,12.46
2023-06-07T11:10:11.549Z,0.00
2023-06-07T11:11:11.197Z,0.00
2023-06-07T11:12:11.266Z,0.00
2023-06-07T11:13:11.288Z,16.61
2023-06-07T11:14:11.325Z,24.73
2023-06-07T11:15:11.353Z,31.03
2023-06-07T11:16:11.520Z,12.71
2023-06-07T11:17:11.810Z,0.00
2023-06-07T11:18:15.663Z,0.00
2023-06-07T11:19:11.566Z,0.00
2023-06-07T11:20:11.669Z,0.00
2023-06-07T11:21:11.594Z,0.00
2023-06-07T11:22:11.814Z,0.00
2023-06-07T11:23:11.583Z,0.00
2023-06-07T11:24:11.656Z,0.00
2023-06-07T11:25:11.657Z,9.83
2023-06-07T11:26:11.619Z,20.27
2023-06-07T11:27:11.870Z,28.58
2023-06-07T11:28:11.615Z,31.29
2023-06-07T11:29:11.695Z,37.89
2023-06-07T11:30:11.753Z,46.39
2023-06-07T11:31:11.832Z,62.09
2023-06-07T11:32:12.038Z,79.48
2023-06-07T11:33:11.876Z,87.99
2023-06-07T11:34:11.917Z,90.05
2023-06-07T11:35:16.939Z,94.08
2023-06-07T11:36:13.434Z,94.25
2023-06-07T11:37:12.319Z,95.62
2023-06-07T11:38:11.947Z,99.34
2023-06-07T11:39:11.988Z,107.06
2023-06-07T11:40:11.949Z,121.73
2023-06-07T11:41:11.977Z,130.30
2023-06-07T11:42:11.983Z,136.84
2023-06-07T11:43:11.997Z,146.00
2023-06-07T11:44:11.963Z,154.08
2023-06-07T11:45:12.008Z,161.56
2023-06-07T11:46:12.012Z,168.45
2023-06-07T11:47:12.073Z,175.12
2023-06-07T11:48:12.110Z,179.63
2023-06-07T11:49:12.089Z,185.49
2023-06-07T11:50:12.050Z,190.47
2023-06-07T11:51:12.054Z,193.48
2023-06-07T11:52:12.045Z,196.69
2023-06-07T11:53:13.525Z,200.63
2023-06-07T11:54:12.056Z,204.19
2023-06-07T11:55:12.072Z,207.50
2023-06-07T11:56:12.127Z,211.32
2023-06-07T11:57:12.187Z,214.64
2023-06-07T11:58:12.211Z,219.61
2023-06-07T11:59:12.246Z,224.18
2023-06-07T12:00:12.248Z,225.45
2023-06-07T12:01:12.297Z,229.02
2023-06-07T12:02:12.296Z,231.53
2023-06-07T12:03:12.629Z,234.60
2023-06-07T12:04:12.497Z,236.59
2023-06-07T12:05:12.418Z,237.57
2023-06-07T12:06:12.440Z,239.96
2023-06-07T12:07:12.496Z,241.92
2023-06-07T12:08:12.478Z,244.06
2023-06-07T12:09:12.526Z,246.49
2023-06-07T12:10:12.555Z,248.67
2023-06-07T12:11:12.570Z,250.00
2023-06-07T12:12:12.586Z,250.00
2023-06-07T12:13:12.654Z,250.00
2023-06-07T12:14:12.682Z,250.05
2023-06-07T12:15:12.676Z,248.91
2023-06-07T12:16:12.739Z,249.09
2023-06-07T12:17:12.750Z,250.00
2023-06-07T12:18:12.783Z,250.00
2023-06-07T12:19:12.819Z,249.70
2023-06-07T12:20:12.871Z,250.00
2023-06-07T12:21:12.970Z,249.84
2023-06-07T12:22:12.912Z,249.95
2023-06-07T12:23:12.981Z,249.62
2023-06-07T12:24:13.042Z,249.73
2023-06-07T12:25:12.997Z,250.00
2023-06-07T12:26:12.996Z,249.99
2023-06-07T12:27:13.079Z,249.96
2023-06-07T12:28:13.170Z,249.99
2023-06-07T12:29:13.105Z,249.43
2023-06-07T12:30:13.167Z,249.73
2023-06-07T12:31:13.211Z,249.59
2023-06-07T12:32:13.219Z,250.00
2023-06-07T12:33:13.235Z,250.00
2023-06-07T12:34:13.269Z,249.64
2023-06-07T12:35:13.304Z,250.00